sensor_id;sensor_type;location;lat;lon;timestamp;P1;durP1;ratioP1;P2;durP2;ratioP2
35120;SDS011;21297;52.008;4.576;2024-01-15T00:01:36;18.90;;;2.05;;
35120;SDS011;21297;52.008;4.576;2024-01-15T00:04:22;19.52;;;2.50;;
35120;SDS011;21297;52.008;4.576;2024-01-15T00:07:07;21.42;;;3.80;;
35120;SDS011;21297;52.008;4.576;2024-01-15T00:09:54;14.95;;;2.05;;
35120;SDS011;21297;52.008;4.576;2024-01-15T00:12:40;16.23;;;2.30;;
35120;SDS011;21297;52.008;4.576;2024-01-15T00:15:25;18.23;;;2.33;;
35120;SDS011;21297;52.008;4.576;2024-01-15T00:18:13;21.17;;;2.70;;
35120;SDS011;21297;52.008;4.576;2024-01-15T00:20:59;23.33;;;2.78;;
35120;SDS011;21297;52.008;4.576;2024-01-15T00:23:45;25.13;;;2.85;;
35120;SDS011;21297;52.008;4.576;2024-01-15T00:26:30;18.85;;;2.42;;
35120;SDS011;21297;52.008;4.576;2024-01-15T00:29:16;12.63;;;2.63;;
35120;SDS011;21297;52.008;4.576;2024-01-15T00:32:02;18.08;;;2.28;;
35120;SDS011;21297;52.008;4.576;2024-01-15T00:34:47;16.85;;;2.45;;
35120;SDS011;21297;52.008;4.576;2024-01-15T00:37:33;20.15;;;2.78;;
35120;SDS011;21297;52.008;4.576;2024-01-15T00:40:19;13.70;;;1.33;;
35120;SDS011;21297;52.008;4.576;2024-01-15T00:43:04;17.33;;;2.10;;
35120;SDS011;21297;52.008;4.576;2024-01-15T00:45:52;19.48;;;2.97;;
35120;SDS011;21297;52.008;4.576;2024-01-15T00:48:38;17.45;;;2.08;;
35120;SDS011;21297;52.008;4.576;2024-01-15T00:51:24;18.85;;;2.28;;
35120;SDS011;21297;52.008;4.576;2024-01-15T00:54:10;16.13;;;2.50;;
35120;SDS011;21297;52.008;4.576;2024-01-15T00:56:55;22.05;;;3.47;;
35120;SDS011;21297;52.008;4.576;2024-01-15T00:59:41;29.95;;;3.90;;
35120;SDS011;21297;52.008;4.576;2024-01-15T01:02:27;14.77;;;2.22;;
35120;SDS011;21297;52.008;4.576;2024-01-15T01:05:12;11.88;;;2.47;;
35120;SDS011;21297;52.008;4.576;2024-01-15T01:07:58;13.90;;;1.42;;
35120;SDS011;21297;52.008;4.576;2024-01-15T01:10:44;12.70;;;1.83;;
35120;SDS011;21297;52.008;4.576;2024-01-15T01:13:29;22.17;;;2.40;;
35120;SDS011;21297;52.008;4.576;2024-01-15T01:16:15;15.57;;;2.10;;
35120;SDS011;21297;52.008;4.576;2024-01-15T01:19:01;19.10;;;2.13;;
35120;SDS011;21297;52.008;4.576;2024-01-15T01:21:46;11.80;;;1.95;;
35120;SDS011;21297;52.008;4.576;2024-01-15T01:24:32;15.55;;;2.92;;
35120;SDS011;21297;52.008;4.576;2024-01-15T01:27:18;16.55;;;1.80;;
35120;SDS011;21297;52.008;4.576;2024-01-15T01:30:04;17.85;;;2.17;;
35120;SDS011;21297;52.008;4.576;2024-01-15T01:32:50;12.23;;;2.67;;
35120;SDS011;21297;52.008;4.576;2024-01-15T01:35:36;15.25;;;2.13;;
35120;SDS011;21297;52.008;4.576;2024-01-15T01:38:21;16.75;;;1.80;;
35120;SDS011;21297;52.008;4.576;2024-01-15T01:41:07;13.63;;;1.88;;
35120;SDS011;21297;52.008;4.576;2024-01-15T01:43:53;16.10;;;2.05;;
35120;SDS011;21297;52.008;4.576;2024-01-15T01:46:38;17.77;;;2.38;;
35120;SDS011;21297;52.008;4.576;2024-01-15T01:49:26;12.80;;;1.95;;
35120;SDS011;21297;52.008;4.576;2024-01-15T01:52:12;12.18;;;1.75;;
35120;SDS011;21297;52.008;4.576;2024-01-15T01:54:59;10.43;;;1.88;;
35120;SDS011;21297;52.008;4.576;2024-01-15T01:57:47;17.20;;;1.65;;
35120;SDS011;21297;52.008;4.576;2024-01-15T02:00:33;12.88;;;1.40;;
35120;SDS011;21297;52.008;4.576;2024-01-15T02:03:20;18.05;;;2.58;;
35120;SDS011;21297;52.008;4.576;2024-01-15T02:06:06;14.15;;;1.55;;
35120;SDS011;21297;52.008;4.576;2024-01-15T02:08:53;10.60;;;1.48;;
35120;SDS011;21297;52.008;4.576;2024-01-15T02:11:38;7.43;;;1.10;;
35120;SDS011;21297;52.008;4.576;2024-01-15T02:14:24;13.18;;;2.53;;
35120;SDS011;21297;52.008;4.576;2024-01-15T02:17:10;10.23;;;1.70;;
35120;SDS011;21297;52.008;4.576;2024-01-15T02:19:56;12.93;;;1.67;;
35120;SDS011;21297;52.008;4.576;2024-01-15T02:22:41;13.40;;;1.35;;
35120;SDS011;21297;52.008;4.576;2024-01-15T02:25:27;16.45;;;3.85;;
35120;SDS011;21297;52.008;4.576;2024-01-15T02:28:13;9.68;;;1.30;;
35120;SDS011;21297;52.008;4.576;2024-01-15T02:31:00;7.80;;;1.17;;
35120;SDS011;21297;52.008;4.576;2024-01-15T02:33:46;10.45;;;1.33;;
35120;SDS011;21297;52.008;4.576;2024-01-15T02:36:31;8.15;;;1.42;;
35120;SDS011;21297;52.008;4.576;2024-01-15T02:39:17;10.30;;;1.30;;
35120;SDS011;21297;52.008;4.576;2024-01-15T02:42:03;7.45;;;1.10;;
35120;SDS011;21297;52.008;4.576;2024-01-15T02:44:49;6.85;;;1.05;;
35120;SDS011;21297;52.008;4.576;2024-01-15T02:47:34;4.80;;;1.00;;
35120;SDS011;21297;52.008;4.576;2024-01-15T02:50:20;6.60;;;0.80;;
35120;SDS011;21297;52.008;4.576;2024-01-15T02:53:06;9.20;;;1.10;;
35120;SDS011;21297;52.008;4.576;2024-01-15T02:55:51;10.00;;;1.10;;
35120;SDS011;21297;52.008;4.576;2024-01-15T02:58:37;14.05;;;1.20;;
35120;SDS011;21297;52.008;4.576;2024-01-15T03:01:23;12.10;;;2.85;;
35120;SDS011;21297;52.008;4.576;2024-01-15T03:04:08;5.82;;;1.10;;
35120;SDS011;21297;52.008;4.576;2024-01-15T03:06:54;6.88;;;1.40;;
35120;SDS011;21297;52.008;4.576;2024-01-15T03:09:40;6.00;;;0.93;;
35120;SDS011;21297;52.008;4.576;2024-01-15T03:12:25;7.90;;;1.52;;
35120;SDS011;21297;52.008;4.576;2024-01-15T03:15:11;11.32;;;1.00;;
35120;SDS011;21297;52.008;4.576;2024-01-15T03:17:57;9.45;;;1.20;;
35120;SDS011;21297;52.008;4.576;2024-01-15T03:20:42;10.35;;;1.50;;
35120;SDS011;21297;52.008;4.576;2024-01-15T03:23:28;6.57;;;1.08;;
35120;SDS011;21297;52.008;4.576;2024-01-15T03:26:13;6.75;;;1.20;;
35120;SDS011;21297;52.008;4.576;2024-01-15T03:28:59;9.13;;;0.90;;
35120;SDS011;21297;52.008;4.576;2024-01-15T03:31:45;6.75;;;1.40;;
35120;SDS011;21297;52.008;4.576;2024-01-15T03:34:30;14.27;;;2.03;;
35120;SDS011;21297;52.008;4.576;2024-01-15T03:37:16;6.38;;;1.38;;
35120;SDS011;21297;52.008;4.576;2024-01-15T03:40:02;6.10;;;0.93;;
35120;SDS011;21297;52.008;4.576;2024-01-15T03:42:48;13.20;;;1.17;;
35120;SDS011;21297;52.008;4.576;2024-01-15T03:45:34;9.25;;;1.30;;
35120;SDS011;21297;52.008;4.576;2024-01-15T03:48:19;8.75;;;1.20;;
35120;SDS011;21297;52.008;4.576;2024-01-15T03:51:05;12.80;;;1.70;;
35120;SDS011;21297;52.008;4.576;2024-01-15T03:53:51;17.13;;;1.88;;
35120;SDS011;21297;52.008;4.576;2024-01-15T03:56:36;11.68;;;1.23;;
35120;SDS011;21297;52.008;4.576;2024-01-15T03:59:22;10.30;;;1.30;;
35120;SDS011;21297;52.008;4.576;2024-01-15T04:02:07;14.75;;;1.45;;
35120;SDS011;21297;52.008;4.576;2024-01-15T04:04:53;10.27;;;1.50;;
35120;SDS011;21297;52.008;4.576;2024-01-15T04:07:39;16.13;;;2.25;;
35120;SDS011;21297;52.008;4.576;2024-01-15T04:10:24;14.07;;;1.80;;
35120;SDS011;21297;52.008;4.576;2024-01-15T04:13:10;11.55;;;1.23;;
35120;SDS011;21297;52.008;4.576;2024-01-15T04:15:56;7.20;;;1.33;;
35120;SDS011;21297;52.008;4.576;2024-01-15T04:18:41;14.30;;;1.73;;
35120;SDS011;21297;52.008;4.576;2024-01-15T04:21:27;12.23;;;1.20;;
35120;SDS011;21297;52.008;4.576;2024-01-15T04:24:13;9.80;;;0.90;;
35120;SDS011;21297;52.008;4.576;2024-01-15T04:26:58;5.97;;;1.83;;
35120;SDS011;21297;52.008;4.576;2024-01-15T04:29:44;7.53;;;0.95;;
35120;SDS011;21297;52.008;4.576;2024-01-15T04:32:30;6.07;;;0.90;;
35120;SDS011;21297;52.008;4.576;2024-01-15T04:35:15;2.83;;;0.68;;
35120;SDS011;21297;52.008;4.576;2024-01-15T04:38:01;7.55;;;1.10;;
35120;SDS011;21297;52.008;4.576;2024-01-15T04:40:47;7.72;;;1.95;;
35120;SDS011;21297;52.008;4.576;2024-01-15T04:43:32;4.25;;;0.80;;
35120;SDS011;21297;52.008;4.576;2024-01-15T04:46:18;6.18;;;1.20;;
35120;SDS011;21297;52.008;4.576;2024-01-15T04:49:04;6.53;;;0.98;;
35120;SDS011;21297;52.008;4.576;2024-01-15T04:51:50;1.58;;;0.65;;
35120;SDS011;21297;52.008;4.576;2024-01-15T04:54:36;5.80;;;1.00;;
35120;SDS011;21297;52.008;4.576;2024-01-15T04:57:22;7.35;;;0.95;;
35120;SDS011;21297;52.008;4.576;2024-01-15T05:00:07;6.18;;;0.70;;
35120;SDS011;21297;52.008;4.576;2024-01-15T05:02:53;5.45;;;1.00;;
35120;SDS011;21297;52.008;4.576;2024-01-15T05:05:39;7.30;;;1.55;;
35120;SDS011;21297;52.008;4.576;2024-01-15T05:08:25;4.72;;;1.30;;
35120;SDS011;21297;52.008;4.576;2024-01-15T05:11:11;7.00;;;0.80;;
35120;SDS011;21297;52.008;4.576;2024-01-15T05:13:56;4.63;;;0.70;;
35120;SDS011;21297;52.008;4.576;2024-01-15T05:16:48;8.18;;;1.02;;
35120;SDS011;21297;52.008;4.576;2024-01-15T05:19:34;8.13;;;0.90;;
35120;SDS011;21297;52.008;4.576;2024-01-15T05:22:20;8.40;;;0.88;;
35120;SDS011;21297;52.008;4.576;2024-01-15T05:25:06;6.18;;;0.90;;
35120;SDS011;21297;52.008;4.576;2024-01-15T05:27:52;8.55;;;1.30;;
35120;SDS011;21297;52.008;4.576;2024-01-15T05:30:37;4.55;;;0.98;;
35120;SDS011;21297;52.008;4.576;2024-01-15T05:33:23;7.63;;;0.90;;
35120;SDS011;21297;52.008;4.576;2024-01-15T05:36:09;10.23;;;1.00;;
35120;SDS011;21297;52.008;4.576;2024-01-15T05:38:55;9.48;;;0.88;;
35120;SDS011;21297;52.008;4.576;2024-01-15T05:41:40;13.93;;;1.40;;
35120;SDS011;21297;52.008;4.576;2024-01-15T05:44:26;7.53;;;1.55;;
35120;SDS011;21297;52.008;4.576;2024-01-15T05:47:12;6.15;;;1.10;;
35120;SDS011;21297;52.008;4.576;2024-01-15T05:49:58;5.57;;;1.10;;
35120;SDS011;21297;52.008;4.576;2024-01-15T05:52:43;13.57;;;2.80;;
35120;SDS011;21297;52.008;4.576;2024-01-15T05:55:29;12.02;;;1.38;;
35120;SDS011;21297;52.008;4.576;2024-01-15T05:58:15;12.45;;;2.65;;
35120;SDS011;21297;52.008;4.576;2024-01-15T06:01:00;9.88;;;1.48;;
35120;SDS011;21297;52.008;4.576;2024-01-15T06:03:46;11.63;;;1.15;;
35120;SDS011;21297;52.008;4.576;2024-01-15T06:06:32;15.50;;;1.55;;
35120;SDS011;21297;52.008;4.576;2024-01-15T06:09:17;12.90;;;2.10;;
35120;SDS011;21297;52.008;4.576;2024-01-15T06:12:03;11.95;;;4.13;;
35120;SDS011;21297;52.008;4.576;2024-01-15T06:14:50;13.80;;;1.63;;
35120;SDS011;21297;52.008;4.576;2024-01-15T06:17:35;12.70;;;1.45;;
35120;SDS011;21297;52.008;4.576;2024-01-15T06:20:23;8.60;;;1.27;;
35120;SDS011;21297;52.008;4.576;2024-01-15T06:23:08;13.85;;;1.60;;
35120;SDS011;21297;52.008;4.576;2024-01-15T06:25:54;10.93;;;2.42;;
35120;SDS011;21297;52.008;4.576;2024-01-15T06:28:40;11.23;;;1.70;;
35120;SDS011;21297;52.008;4.576;2024-01-15T06:31:25;2.75;;;0.70;;
35120;SDS011;21297;52.008;4.576;2024-01-15T06:34:11;5.80;;;1.00;;
35120;SDS011;21297;52.008;4.576;2024-01-15T06:36:57;4.63;;;0.60;;
35120;SDS011;21297;52.008;4.576;2024-01-15T06:39:43;5.60;;;0.98;;
35120;SDS011;21297;52.008;4.576;2024-01-15T06:42:28;5.60;;;0.93;;
35120;SDS011;21297;52.008;4.576;2024-01-15T06:45:14;6.18;;;0.80;;
35120;SDS011;21297;52.008;4.576;2024-01-15T06:48:00;4.82;;;0.98;;
35120;SDS011;21297;52.008;4.576;2024-01-15T06:50:45;12.65;;;1.90;;
35120;SDS011;21297;52.008;4.576;2024-01-15T06:53:31;6.55;;;1.40;;
35120;SDS011;21297;52.008;4.576;2024-01-15T06:56:17;8.23;;;1.52;;
35120;SDS011;21297;52.008;4.576;2024-01-15T06:59:02;8.05;;;1.30;;
35120;SDS011;21297;52.008;4.576;2024-01-15T07:01:48;11.68;;;2.25;;
35120;SDS011;21297;52.008;4.576;2024-01-15T07:04:33;13.70;;;1.60;;
35120;SDS011;21297;52.008;4.576;2024-01-15T07:07:19;13.75;;;1.30;;
35120;SDS011;21297;52.008;4.576;2024-01-15T07:10:05;11.88;;;1.33;;
35120;SDS011;21297;52.008;4.576;2024-01-15T07:12:51;13.73;;;2.28;;
35120;SDS011;21297;52.008;4.576;2024-01-15T07:15:37;14.68;;;1.85;;
35120;SDS011;21297;52.008;4.576;2024-01-15T07:18:22;11.90;;;2.22;;
35120;SDS011;21297;52.008;4.576;2024-01-15T07:21:08;12.45;;;1.77;;
35120;SDS011;21297;52.008;4.576;2024-01-15T07:23:54;14.30;;;2.65;;
35120;SDS011;21297;52.008;4.576;2024-01-15T07:26:40;8.68;;;1.40;;
35120;SDS011;21297;52.008;4.576;2024-01-15T07:29:26;9.52;;;1.42;;
35120;SDS011;21297;52.008;4.576;2024-01-15T07:32:12;9.48;;;1.90;;
35120;SDS011;21297;52.008;4.576;2024-01-15T07:34:57;8.93;;;1.70;;
35120;SDS011;21297;52.008;4.576;2024-01-15T07:37:44;10.43;;;1.98;;
35120;SDS011;21297;52.008;4.576;2024-01-15T07:40:30;7.15;;;1.33;;
35120;SDS011;21297;52.008;4.576;2024-01-15T07:43:16;5.47;;;0.90;;
35120;SDS011;21297;52.008;4.576;2024-01-15T07:46:01;9.38;;;1.40;;
35120;SDS011;21297;52.008;4.576;2024-01-15T07:48:47;13.00;;;1.90;;
35120;SDS011;21297;52.008;4.576;2024-01-15T07:51:33;13.00;;;1.90;;
35120;SDS011;21297;52.008;4.576;2024-01-15T07:54:19;20.52;;;2.35;;
35120;SDS011;21297;52.008;4.576;2024-01-15T07:57:04;13.10;;;1.92;;
35120;SDS011;21297;52.008;4.576;2024-01-15T07:59:50;10.23;;;1.85;;
35120;SDS011;21297;52.008;4.576;2024-01-15T08:02:36;21.40;;;2.20;;
35120;SDS011;21297;52.008;4.576;2024-01-15T08:05:22;20.15;;;2.13;;
35120;SDS011;21297;52.008;4.576;2024-01-15T08:08:08;13.52;;;1.60;;
35120;SDS011;21297;52.008;4.576;2024-01-15T08:10:54;24.73;;;2.45;;
35120;SDS011;21297;52.008;4.576;2024-01-15T08:13:40;13.98;;;1.98;;
35120;SDS011;21297;52.008;4.576;2024-01-15T08:16:26;18.33;;;2.00;;
35120;SDS011;21297;52.008;4.576;2024-01-15T08:19:12;13.70;;;2.08;;
35120;SDS011;21297;52.008;4.576;2024-01-15T08:21:59;20.75;;;1.90;;
35120;SDS011;21297;52.008;4.576;2024-01-15T08:24:45;20.20;;;2.22;;
35120;SDS011;21297;52.008;4.576;2024-01-15T08:27:31;20.35;;;2.25;;
35120;SDS011;21297;52.008;4.576;2024-01-15T08:30:16;24.30;;;3.60;;
35120;SDS011;21297;52.008;4.576;2024-01-15T08:33:04;15.25;;;1.73;;
35120;SDS011;21297;52.008;4.576;2024-01-15T08:35:49;12.55;;;2.08;;
35120;SDS011;21297;52.008;4.576;2024-01-15T08:38:35;13.95;;;2.50;;
35120;SDS011;21297;52.008;4.576;2024-01-15T08:41:21;9.73;;;2.95;;
35120;SDS011;21297;52.008;4.576;2024-01-15T08:44:06;12.00;;;1.65;;
35120;SDS011;21297;52.008;4.576;2024-01-15T08:46:52;17.55;;;1.58;;
35120;SDS011;21297;52.008;4.576;2024-01-15T08:49:38;13.35;;;4.00;;
35120;SDS011;21297;52.008;4.576;2024-01-15T08:52:25;9.57;;;1.38;;
35120;SDS011;21297;52.008;4.576;2024-01-15T08:55:10;8.27;;;1.08;;
35120;SDS011;21297;52.008;4.576;2024-01-15T08:57:58;7.55;;;1.00;;
35120;SDS011;21297;52.008;4.576;2024-01-15T09:00:44;8.80;;;1.48;;
35120;SDS011;21297;52.008;4.576;2024-01-15T09:03:29;5.88;;;1.00;;
35120;SDS011;21297;52.008;4.576;2024-01-15T09:06:15;7.10;;;0.93;;
35120;SDS011;21297;52.008;4.576;2024-01-15T09:09:01;9.23;;;1.05;;
35120;SDS011;21297;52.008;4.576;2024-01-15T09:11:46;8.85;;;1.17;;
35120;SDS011;21297;52.008;4.576;2024-01-15T09:14:32;9.40;;;1.50;;
35120;SDS011;21297;52.008;4.576;2024-01-15T09:17:20;8.93;;;1.10;;
35120;SDS011;21297;52.008;4.576;2024-01-15T09:20:07;6.45;;;1.20;;
35120;SDS011;21297;52.008;4.576;2024-01-15T09:22:54;12.40;;;1.40;;
35120;SDS011;21297;52.008;4.576;2024-01-15T09:25:39;9.38;;;1.17;;
35120;SDS011;21297;52.008;4.576;2024-01-15T09:28:25;13.15;;;1.17;;
35120;SDS011;21297;52.008;4.576;2024-01-15T09:31:11;13.50;;;1.23;;
35120;SDS011;21297;52.008;4.576;2024-01-15T09:33:57;10.88;;;1.30;;
35120;SDS011;21297;52.008;4.576;2024-01-15T09:36:44;15.98;;;3.33;;
35120;SDS011;21297;52.008;4.576;2024-01-15T09:39:30;13.15;;;2.47;;
35120;SDS011;21297;52.008;4.576;2024-01-15T09:42:16;10.30;;;1.65;;
35120;SDS011;21297;52.008;4.576;2024-01-15T09:45:03;8.13;;;1.42;;
35120;SDS011;21297;52.008;4.576;2024-01-15T09:47:49;7.10;;;1.38;;
35120;SDS011;21297;52.008;4.576;2024-01-15T09:50:35;15.07;;;3.42;;
35120;SDS011;21297;52.008;4.576;2024-01-15T09:53:20;13.85;;;1.75;;
35120;SDS011;21297;52.008;4.576;2024-01-15T09:56:06;8.50;;;1.33;;
35120;SDS011;21297;52.008;4.576;2024-01-15T09:58:52;6.55;;;1.05;;
35120;SDS011;21297;52.008;4.576;2024-01-15T10:01:38;7.85;;;1.00;;
35120;SDS011;21297;52.008;4.576;2024-01-15T10:04:26;6.43;;;1.10;;
35120;SDS011;21297;52.008;4.576;2024-01-15T10:07:15;6.65;;;1.20;;
35120;SDS011;21297;52.008;4.576;2024-01-15T10:10:05;6.95;;;1.17;;
35120;SDS011;21297;52.008;4.576;2024-01-15T10:12:51;7.82;;;1.08;;
35120;SDS011;21297;52.008;4.576;2024-01-15T10:15:37;9.77;;;1.55;;
35120;SDS011;21297;52.008;4.576;2024-01-15T10:18:23;8.15;;;2.13;;
35120;SDS011;21297;52.008;4.576;2024-01-15T10:21:09;15.95;;;1.45;;
35120;SDS011;21297;52.008;4.576;2024-01-15T10:23:55;8.00;;;1.40;;
35120;SDS011;21297;52.008;4.576;2024-01-15T10:26:41;11.88;;;1.77;;
35120;SDS011;21297;52.008;4.576;2024-01-15T10:29:26;11.38;;;1.25;;
35120;SDS011;21297;52.008;4.576;2024-01-15T10:32:12;13.68;;;2.22;;
35120;SDS011;21297;52.008;4.576;2024-01-15T10:34:57;18.38;;;2.17;;
35120;SDS011;21297;52.008;4.576;2024-01-15T10:37:43;13.93;;;1.80;;
35120;SDS011;21297;52.008;4.576;2024-01-15T10:40:29;9.63;;;1.10;;
35120;SDS011;21297;52.008;4.576;2024-01-15T10:43:15;8.27;;;1.38;;
35120;SDS011;21297;52.008;4.576;2024-01-15T10:46:00;6.25;;;1.33;;
35120;SDS011;21297;52.008;4.576;2024-01-15T10:48:46;14.38;;;1.80;;
35120;SDS011;21297;52.008;4.576;2024-01-15T10:51:32;12.02;;;1.73;;
35120;SDS011;21297;52.008;4.576;2024-01-15T10:54:18;10.60;;;1.27;;
35120;SDS011;21297;52.008;4.576;2024-01-15T10:57:04;8.13;;;1.30;;
35120;SDS011;21297;52.008;4.576;2024-01-15T10:59:51;13.05;;;1.88;;
35120;SDS011;21297;52.008;4.576;2024-01-15T11:02:36;6.97;;;1.42;;
35120;SDS011;21297;52.008;4.576;2024-01-15T11:05:23;5.82;;;1.15;;
35120;SDS011;21297;52.008;4.576;2024-01-15T11:08:09;12.93;;;2.35;;
35120;SDS011;21297;52.008;4.576;2024-01-15T11:10:56;10.88;;;1.38;;
35120;SDS011;21297;52.008;4.576;2024-01-15T11:13:42;11.10;;;1.27;;
35120;SDS011;21297;52.008;4.576;2024-01-15T11:16:53;13.88;;;1.33;;
35120;SDS011;21297;52.008;4.576;2024-01-15T11:19:43;11.77;;;1.42;;
35120;SDS011;21297;52.008;4.576;2024-01-15T11:22:48;5.93;;;1.08;;
35120;SDS011;21297;52.008;4.576;2024-01-15T11:25:35;5.57;;;1.00;;
35120;SDS011;21297;52.008;4.576;2024-01-15T11:40:41;10.07;;;1.70;;
35120;SDS011;21297;52.008;4.576;2024-01-15T11:43:28;10.80;;;1.17;;
35120;SDS011;21297;52.008;4.576;2024-01-15T11:46:16;9.68;;;1.10;;
35120;SDS011;21297;52.008;4.576;2024-01-15T11:49:03;10.05;;;1.67;;
35120;SDS011;21297;52.008;4.576;2024-01-15T11:51:51;12.13;;;1.85;;
35120;SDS011;21297;52.008;4.576;2024-01-15T11:54:39;14.43;;;2.30;;
35120;SDS011;21297;52.008;4.576;2024-01-15T11:57:52;6.25;;;1.25;;
35120;SDS011;21297;52.008;4.576;2024-01-15T12:00:45;11.45;;;2.10;;
35120;SDS011;21297;52.008;4.576;2024-01-15T12:03:34;13.90;;;1.60;;
35120;SDS011;21297;52.008;4.576;2024-01-15T12:06:20;10.98;;;1.70;;
35120;SDS011;21297;52.008;4.576;2024-01-15T12:09:07;11.65;;;1.70;;
35120;SDS011;21297;52.008;4.576;2024-01-15T12:12:03;19.08;;;2.20;;
35120;SDS011;21297;52.008;4.576;2024-01-15T12:14:56;20.52;;;1.90;;
35120;SDS011;21297;52.008;4.576;2024-01-15T12:17:42;16.00;;;2.08;;
35120;SDS011;21297;52.008;4.576;2024-01-15T12:20:28;9.65;;;1.65;;
35120;SDS011;21297;52.008;4.576;2024-01-15T12:23:15;21.48;;;3.78;;
35120;SDS011;21297;52.008;4.576;2024-01-15T12:26:02;20.70;;;2.17;;
35120;SDS011;21297;52.008;4.576;2024-01-15T12:28:49;17.38;;;2.47;;
35120;SDS011;21297;52.008;4.576;2024-01-15T12:31:36;18.45;;;2.40;;
35120;SDS011;21297;52.008;4.576;2024-01-15T12:34:22;25.17;;;4.72;;
35120;SDS011;21297;52.008;4.576;2024-01-15T12:37:08;14.57;;;1.50;;
35120;SDS011;21297;52.008;4.576;2024-01-15T12:39:53;14.43;;;1.90;;
35120;SDS011;21297;52.008;4.576;2024-01-15T12:42:40;17.27;;;1.98;;
35120;SDS011;21297;52.008;4.576;2024-01-15T12:45:26;15.07;;;2.00;;
35120;SDS011;21297;52.008;4.576;2024-01-15T12:48:12;16.73;;;2.85;;
35120;SDS011;21297;52.008;4.576;2024-01-15T12:51:00;16.52;;;3.22;;
35120;SDS011;21297;52.008;4.576;2024-01-15T12:53:46;11.98;;;3.55;;
35120;SDS011;21297;52.008;4.576;2024-01-15T12:56:32;16.38;;;2.03;;
35120;SDS011;21297;52.008;4.576;2024-01-15T12:59:18;14.18;;;1.73;;
35120;SDS011;21297;52.008;4.576;2024-01-15T13:02:04;20.48;;;2.92;;
35120;SDS011;21297;52.008;4.576;2024-01-15T13:04:49;17.73;;;2.30;;
35120;SDS011;21297;52.008;4.576;2024-01-15T13:07:35;19.48;;;2.28;;
35120;SDS011;21297;52.008;4.576;2024-01-15T13:10:21;11.95;;;1.55;;
35120;SDS011;21297;52.008;4.576;2024-01-15T13:13:06;18.98;;;2.97;;
35120;SDS011;21297;52.008;4.576;2024-01-15T13:15:52;8.70;;;2.03;;
35120;SDS011;21297;52.008;4.576;2024-01-15T13:18:38;9.60;;;1.50;;
35120;SDS011;21297;52.008;4.576;2024-01-15T13:21:24;6.43;;;1.88;;
35120;SDS011;21297;52.008;4.576;2024-01-15T13:24:09;6.65;;;1.50;;
35120;SDS011;21297;52.008;4.576;2024-01-15T13:26:56;13.63;;;1.67;;
35120;SDS011;21297;52.008;4.576;2024-01-15T13:29:42;11.30;;;1.80;;
35120;SDS011;21297;52.008;4.576;2024-01-15T13:32:28;14.85;;;1.70;;
35120;SDS011;21297;52.008;4.576;2024-01-15T13:35:14;11.55;;;2.22;;
35120;SDS011;21297;52.008;4.576;2024-01-15T13:37:59;24.58;;;2.00;;
35120;SDS011;21297;52.008;4.576;2024-01-15T13:40:45;13.23;;;1.75;;
35120;SDS011;21297;52.008;4.576;2024-01-15T13:43:31;17.88;;;2.28;;
35120;SDS011;21297;52.008;4.576;2024-01-15T13:46:18;14.95;;;2.08;;
35120;SDS011;21297;52.008;4.576;2024-01-15T13:49:04;15.45;;;2.20;;
35120;SDS011;21297;52.008;4.576;2024-01-15T13:51:52;12.57;;;2.05;;
35120;SDS011;21297;52.008;4.576;2024-01-15T13:54:38;17.45;;;2.00;;
35120;SDS011;21297;52.008;4.576;2024-01-15T13:57:24;12.27;;;2.28;;
35120;SDS011;21297;52.008;4.576;2024-01-15T14:00:10;18.13;;;2.05;;
35120;SDS011;21297;52.008;4.576;2024-01-15T14:02:56;17.42;;;3.08;;
35120;SDS011;21297;52.008;4.576;2024-01-15T14:05:43;16.08;;;3.08;;
35120;SDS011;21297;52.008;4.576;2024-01-15T14:08:28;22.13;;;3.13;;
35120;SDS011;21297;52.008;4.576;2024-01-15T14:11:14;17.00;;;2.28;;
35120;SDS011;21297;52.008;4.576;2024-01-15T14:13:59;12.68;;;2.72;;
35120;SDS011;21297;52.008;4.576;2024-01-15T14:16:45;22.65;;;2.45;;
35120;SDS011;21297;52.008;4.576;2024-01-15T14:19:31;18.05;;;2.28;;
35120;SDS011;21297;52.008;4.576;2024-01-15T14:22:17;19.13;;;2.67;;
35120;SDS011;21297;52.008;4.576;2024-01-15T14:25:03;13.93;;;2.00;;
35120;SDS011;21297;52.008;4.576;2024-01-15T14:27:48;14.85;;;2.03;;
35120;SDS011;21297;52.008;4.576;2024-01-15T14:30:35;20.48;;;2.33;;
35120;SDS011;21297;52.008;4.576;2024-01-15T14:33:21;24.08;;;2.75;;
35120;SDS011;21297;52.008;4.576;2024-01-15T14:36:06;15.43;;;2.63;;
35120;SDS011;21297;52.008;4.576;2024-01-15T14:38:52;19.48;;;2.60;;
35120;SDS011;21297;52.008;4.576;2024-01-15T14:41:38;14.57;;;2.28;;
35120;SDS011;21297;52.008;4.576;2024-01-15T14:44:24;19.05;;;2.08;;
35120;SDS011;21297;52.008;4.576;2024-01-15T14:47:09;21.58;;;2.88;;
35120;SDS011;21297;52.008;4.576;2024-01-15T14:49:55;18.00;;;2.30;;
35120;SDS011;21297;52.008;4.576;2024-01-15T14:52:42;15.93;;;2.03;;
35120;SDS011;21297;52.008;4.576;2024-01-15T14:55:28;13.45;;;2.15;;
35120;SDS011;21297;52.008;4.576;2024-01-15T14:58:13;16.25;;;2.20;;
35120;SDS011;21297;52.008;4.576;2024-01-15T15:00:59;18.67;;;1.95;;
35120;SDS011;21297;52.008;4.576;2024-01-15T15:03:45;15.13;;;1.70;;
35120;SDS011;21297;52.008;4.576;2024-01-15T15:06:30;19.58;;;2.60;;
35120;SDS011;21297;52.008;4.576;2024-01-15T15:09:16;16.38;;;2.17;;
35120;SDS011;21297;52.008;4.576;2024-01-15T15:12:02;11.63;;;2.28;;
35120;SDS011;21297;52.008;4.576;2024-01-15T15:14:50;13.15;;;1.50;;
35120;SDS011;21297;52.008;4.576;2024-01-15T15:17:35;10.05;;;1.58;;
35120;SDS011;21297;52.008;4.576;2024-01-15T15:20:21;13.40;;;1.98;;
35120;SDS011;21297;52.008;4.576;2024-01-15T15:23:07;10.10;;;1.27;;
35120;SDS011;21297;52.008;4.576;2024-01-15T15:25:53;7.05;;;1.40;;
35120;SDS011;21297;52.008;4.576;2024-01-15T15:28:39;4.60;;;1.10;;
35120;SDS011;21297;52.008;4.576;2024-01-15T15:31:25;8.18;;;1.27;;
35120;SDS011;21297;52.008;4.576;2024-01-15T15:34:10;8.05;;;1.48;;
35120;SDS011;21297;52.008;4.576;2024-01-15T15:36:56;8.95;;;2.15;;
35120;SDS011;21297;52.008;4.576;2024-01-15T15:39:42;13.68;;;1.75;;
35120;SDS011;21297;52.008;4.576;2024-01-15T15:42:28;13.95;;;2.17;;
35120;SDS011;21297;52.008;4.576;2024-01-15T15:45:13;10.50;;;2.20;;
35120;SDS011;21297;52.008;4.576;2024-01-15T15:47:59;11.02;;;1.73;;
35120;SDS011;21297;52.008;4.576;2024-01-15T15:50:45;11.95;;;1.77;;
35120;SDS011;21297;52.008;4.576;2024-01-15T15:53:30;12.52;;;1.60;;
35120;SDS011;21297;52.008;4.576;2024-01-15T15:56:16;16.42;;;2.08;;
35120;SDS011;21297;52.008;4.576;2024-01-15T15:59:02;17.27;;;2.45;;
35120;SDS011;21297;52.008;4.576;2024-01-15T16:01:48;19.80;;;2.83;;
35120;SDS011;21297;52.008;4.576;2024-01-15T16:04:34;14.32;;;2.50;;
35120;SDS011;21297;52.008;4.576;2024-01-15T16:07:19;16.45;;;2.55;;
35120;SDS011;21297;52.008;4.576;2024-01-15T16:10:05;18.90;;;3.95;;
35120;SDS011;21297;52.008;4.576;2024-01-15T16:12:51;13.70;;;1.92;;
35120;SDS011;21297;52.008;4.576;2024-01-15T16:15:37;14.07;;;2.72;;
35120;SDS011;21297;52.008;4.576;2024-01-15T16:18:22;11.10;;;1.77;;
35120;SDS011;21297;52.008;4.576;2024-01-15T16:21:08;11.70;;;2.22;;
35120;SDS011;21297;52.008;4.576;2024-01-15T16:23:54;13.23;;;2.53;;
35120;SDS011;21297;52.008;4.576;2024-01-15T16:26:40;16.92;;;2.95;;
35120;SDS011;21297;52.008;4.576;2024-01-15T16:29:26;13.77;;;2.03;;
35120;SDS011;21297;52.008;4.576;2024-01-15T16:32:12;16.90;;;2.33;;
35120;SDS011;21297;52.008;4.576;2024-01-15T16:34:57;22.88;;;3.33;;
35120;SDS011;21297;52.008;4.576;2024-01-15T16:37:43;14.93;;;2.08;;
35120;SDS011;21297;52.008;4.576;2024-01-15T16:40:29;16.50;;;2.22;;
35120;SDS011;21297;52.008;4.576;2024-01-15T16:43:14;14.50;;;2.47;;